Time;durP1;ratioP1;P1;durP2;ratioP2;P2;SDS_P1;SDS_P2;PMS_P1;PMS_P2;Temp;Humidity;BMP_temperature;BMP_pressure;BME280_temperature;BME280_humidity;BME280_pressure;Samples;Min_cycle;Max_cycle;Signal;HPM_P1;HPM_P2
2023/05/08 00:01:30;;;;;;;21.67;18.67;;;;;;;;;;5046257;28;20668;-69
2023/05/08 00:03:55;;;;;;;22.80;19.15;;;;;;;;;;5047092;28;20310;-69
2023/05/08 00:06:20;;;;;;;23.33;19.42;;;;;;;;;;5033276;28;20217;-69
2023/05/08 00:08:46;;;;;;;21.52;18.15;;;;;;;;;;5047891;28;20667;-69
2023/05/08 00:11:12;;;;;;;25.98;19.95;;;;;;;;;;5033189;28;20192;-69
2023/05/08 00:13:37;;;;;;;22.83;18.77;;;;;;;;;;5041054;28;20297;-69
2023/05/08 00:16:03;;;;;;;30.23;21.02;;;;;;;;;;5046115;28;20571;-69
2023/05/08 00:18:29;;;;;;;22.98;19.75;;;;;;;;;;5042226;28;20221;-69
2023/05/08 00:20:54;;;;;;;22.05;19.35;;;;;;;;;;5046685;28;20558;-69
2023/05/08 00:23:21;;;;;;;23.55;19.05;;;;;;;;;;5042140;28;20207;-70
2023/05/08 00:25:46;;;;;;;22.50;20.05;;;;;;;;;;5036321;28;20589;-69
2023/05/08 00:28:12;;;;;;;27.75;20.25;;;;;;;;;;5048130;28;20197;-70
2023/05/08 00:30:37;;;;;;;23.92;19.63;;;;;;;;;;5045845;28;20610;-70
2023/05/08 00:33:03;;;;;;;23.88;19.15;;;;;;;;;;5039258;28;20185;-69
2023/05/08 00:35:28;;;;;;;23.45;20.27;;;;;;;;;;5034400;28;20186;-69
2023/05/08 00:37:54;;;;;;;25.63;20.42;;;;;;;;;;5043368;28;20277;-69
2023/05/08 00:40:19;;;;;;;26.10;21.35;;;;;;;;;;5042030;28;20557;-69
2023/05/08 00:42:44;;;;;;;22.83;20.00;;;;;;;;;;5046744;28;20197;-69
2023/05/08 00:45:10;;;;;;;25.90;20.17;;;;;;;;;;5030554;28;20272;-70
2023/05/08 00:47:35;;;;;;;24.15;21.20;;;;;;;;;;5043166;28;20232;-70
2023/05/08 00:50:01;;;;;;;26.25;21.50;;;;;;;;;;5043540;28;20254;-69
2023/05/08 00:52:29;;;;;;;25.25;20.95;;;;;;;;;;5036051;28;20202;-70
2023/05/08 00:54:55;;;;;;;24.08;21.00;;;;;;;;;;5046600;28;20189;-70
2023/05/08 00:57:21;;;;;;;24.27;20.23;;;;;;;;;;5046220;28;20232;-70
2023/05/08 00:59:48;;;;;;;26.10;21.92;;;;;;;;;;5033764;28;20265;-70
2023/05/08 01:02:15;;;;;;;24.98;20.88;;;;;;;;;;5034393;28;20256;-70
2023/05/08 01:04:43;;;;;;;28.30;22.08;;;;;;;;;;5032395;28;20190;-70
2023/05/08 01:07:10;;;;;;;27.15;22.63;;;;;;;;;;5037533;28;20734;-70
2023/05/08 01:09:35;;;;;;;25.55;21.48;;;;;;;;;;5044188;28;20204;-69
2023/05/08 01:12:06;;;;;;;25.58;21.08;;;;;;;;;;5044892;28;20193;-70
2023/05/08 01:14:56;;;;;;;28.05;21.88;;;;;;;;;;5045009;28;20317;-70
2023/05/08 01:17:46;;;;;;;25.70;21.58;;;;;;;;;;5046717;28;20210;-69
2023/05/08 01:20:45;;;;;;;26.58;21.63;;;;;;;;;;5062551;28;20182;-69
2023/05/08 01:23:22;;;;;;;29.85;22.23;;;;;;;;;;5055461;28;20177;-69
2023/05/08 01:25:59;;;;;;;31.20;21.85;;;;;;;;;;5050534;28;20342;-69
2023/05/08 01:28:30;;;;;;;27.17;22.63;;;;;;;;;;5049303;28;20228;-69
2023/05/08 01:31:06;;;;;;;30.45;23.60;;;;;;;;;;5040106;28;20585;-69
2023/05/08 01:33:31;;;;;;;30.85;22.67;;;;;;;;;;5043132;28;20268;-69
2023/05/08 01:36:05;;;;;;;31.17;23.77;;;;;;;;;;5043107;28;20335;-69
2023/05/08 01:38:34;;;;;;;29.17;23.13;;;;;;;;;;5046490;28;20553;-69
2023/05/08 01:41:09;;;;;;;28.80;23.55;;;;;;;;;;5049017;28;20268;-69
2023/05/08 01:44:00;;;;;;;32.08;23.38;;;;;;;;;;5054282;28;20240;-69
2023/05/08 01:46:27;;;;;;;28.33;23.17;;;;;;;;;;5045934;28;20371;-69
2023/05/08 01:49:05;;;;;;;29.95;24.10;;;;;;;;;;5043165;28;20178;-69
2023/05/08 01:51:37;;;;;;;28.85;22.80;;;;;;;;;;5038558;28;20177;-69
2023/05/08 01:54:06;;;;;;;30.58;24.08;;;;;;;;;;5041228;28;20190;-69
2023/05/08 01:56:33;;;;;;;30.40;23.73;;;;;;;;;;5038418;28;20198;-69
2023/05/08 01:59:01;;;;;;;33.63;24.52;;;;;;;;;;5037316;28;20214;-69
2023/05/08 02:01:28;;;;;;;31.90;23.35;;;;;;;;;;5038927;28;20212;-70
2023/05/08 02:03:55;;;;;;;30.63;24.15;;;;;;;;;;5045021;28;20190;-69
2023/05/08 02:06:21;;;;;;;28.92;23.58;;;;;;;;;;5030181;28;20190;-70
2023/05/08 02:08:49;;;;;;;31.13;23.73;;;;;;;;;;5034170;28;20186;-70
2023/05/08 02:11:15;;;;;;;30.38;23.88;;;;;;;;;;5047404;28;20683;-69
2023/05/08 02:13:43;;;;;;;32.10;24.58;;;;;;;;;;5048462;28;20193;-70
2023/05/08 02:16:11;;;;;;;29.95;23.83;;;;;;;;;;5042591;28;20182;-70
2023/05/08 02:18:38;;;;;;;34.42;24.70;;;;;;;;;;5045863;28;20292;-69
2023/05/08 02:21:05;;;;;;;30.38;23.95;;;;;;;;;;5043612;28;20186;-70
2023/05/08 02:23:32;;;;;;;29.60;24.00;;;;;;;;;;5036429;28;20243;-69
2023/05/08 02:25:59;;;;;;;30.15;23.85;;;;;;;;;;5033686;28;20190;-69
2023/05/08 02:28:26;;;;;;;30.17;24.23;;;;;;;;;;5034956;28;20248;-69
2023/05/08 02:30:52;;;;;;;32.40;24.20;;;;;;;;;;5048361;28;20225;-70
2023/05/08 02:33:18;;;;;;;35.80;25.02;;;;;;;;;;5040412;28;20228;-70
2023/05/08 02:35:46;;;;;;;30.95;24.98;;;;;;;;;;5042902;28;20218;-69
2023/05/08 02:38:13;;;;;;;32.30;24.15;;;;;;;;;;5049316;28;20202;-69
2023/05/08 02:40:47;;;;;;;29.88;24.15;;;;;;;;;;5049467;28;20185;-70
2023/05/08 02:43:13;;;;;;;31.45;24.17;;;;;;;;;;5043414;28;20228;-70
2023/05/08 02:46:08;;;;;;;30.60;23.88;;;;;;;;;;5048888;28;20238;-70
2023/05/08 02:48:39;;;;;;;33.08;24.45;;;;;;;;;;5041954;28;20276;-70
2023/05/08 02:51:21;;;;;;;32.00;24.67;;;;;;;;;;5029979;28;20424;-70
2023/05/08 02:54:07;;;;;;;33.92;24.85;;;;;;;;;;5042428;28;20588;-70
2023/05/08 02:56:51;;;;;;;32.83;24.88;;;;;;;;;;5041395;28;20683;-70
2023/05/08 02:59:21;;;;;;;31.88;25.52;;;;;;;;;;5029793;28;20205;-70
2023/05/08 03:02:09;;;;;;;33.65;25.52;;;;;;;;;;5032628;28;20205;-69
2023/05/08 03:04:40;;;;;;;31.00;25.17;;;;;;;;;;5047016;28;20669;-70
2023/05/08 03:07:05;;;;;;;33.22;23.45;;;;;;;;;;5044584;28;20249;-69
2023/05/08 03:09:40;;;;;;;35.03;24.92;;;;;;;;;;5038891;28;20885;-69
2023/05/08 03:12:11;;;;;;;29.52;23.50;;;;;;;;;;5033388;28;20394;-69
2023/05/08 03:14:43;;;;;;;31.05;24.05;;;;;;;;;;5036938;28;20625;-70
2023/05/08 03:17:14;;;;;;;34.05;25.73;;;;;;;;;;5045525;28;20210;-70
2023/05/08 03:19:40;;;;;;;31.25;25.25;;;;;;;;;;5048675;28;20193;-70
2023/05/08 03:22:09;;;;;;;34.35;26.15;;;;;;;;;;5041284;28;21000;-70
2023/05/08 03:24:36;;;;;;;33.13;25.50;;;;;;;;;;5039599;28;20190;-70
2023/05/08 03:27:02;;;;;;;32.45;24.77;;;;;;;;;;5032128;28;20653;-70
2023/05/08 03:29:28;;;;;;;34.67;26.05;;;;;;;;;;5039876;28;20194;-70
2023/05/08 03:31:55;;;;;;;34.78;26.58;;;;;;;;;;5041948;28;20300;-70
2023/05/08 03:34:22;;;;;;;34.00;25.20;;;;;;;;;;5048067;28;20197;-70
2023/05/08 03:36:47;;;;;;;32.25;25.52;;;;;;;;;;5041948;28;20456;-69
2023/05/08 03:39:13;;;;;;;32.63;24.80;;;;;;;;;;5044076;28;20247;-69
2023/05/08 03:41:39;;;;;;;33.85;24.25;;;;;;;;;;5044752;28;20193;-70
2023/05/08 03:44:06;;;;;;;34.28;25.20;;;;;;;;;;5044809;28;21000;-69
2023/05/08 03:46:33;;;;;;;35.50;25.02;;;;;;;;;;5046204;28;20712;-70
2023/05/08 03:48:59;;;;;;;32.67;24.77;;;;;;;;;;5048499;28;20186;-70
2023/05/08 03:51:25;;;;;;;31.92;24.27;;;;;;;;;;5042660;28;20197;-70
2023/05/08 03:53:50;;;;;;;34.80;26.27;;;;;;;;;;5034525;28;20753;-69
2023/05/08 03:56:16;;;;;;;32.53;24.70;;;;;;;;;;5028010;28;20200;-69
2023/05/08 03:58:59;;;;;;;32.28;25.02;;;;;;;;;;5037969;28;20214;-70
2023/05/08 04:01:40;;;;;;;31.75;24.73;;;;;;;;;;5055659;28;20212;-70
2023/05/08 04:04:18;;;;;;;33.72;25.20;;;;;;;;;;5037294;28;20189;-69
2023/05/08 04:06:49;;;;;;;32.03;24.20;;;;;;;;;;5039461;28;20193;-69
2023/05/08 04:09:26;;;;;;;36.40;25.27;;;;;;;;;;5032785;28;20235;-69
2023/05/08 04:12:08;;;;;;;33.13;24.85;;;;;;;;;;5042375;28;20200;-69
2023/05/08 04:14:42;;;;;;;34.88;25.42;;;;;;;;;;5046148;28;20221;-69
2023/05/08 04:17:10;;;;;;;32.65;25.30;;;;;;;;;;5042215;28;20319;-70
2023/05/08 04:19:42;;;;;;;35.25;25.13;;;;;;;;;;5042491;28;20259;-69
2023/05/08 04:22:10;;;;;;;32.33;23.80;;;;;;;;;;5041782;28;20198;-69
2023/05/08 04:24:43;;;;;;;29.95;24.58;;;;;;;;;;5041782;28;20277;-70
2023/05/08 04:27:09;;;;;;;32.55;25.02;;;;;;;;;;5040459;28;20649;-70
2023/05/08 04:29:35;;;;;;;32.38;24.92;;;;;;;;;;5046677;28;20193;-70
2023/05/08 04:32:04;;;;;;;33.40;24.67;;;;;;;;;;5046124;28;20208;-70
2023/05/08 04:34:30;;;;;;;30.92;24.73;;;;;;;;;;5042120;28;20240;-70
2023/05/08 04:36:56;;;;;;;30.65;23.17;;;;;;;;;;5039595;28;20213;-70
2023/05/08 04:39:21;;;;;;;33.45;24.33;;;;;;;;;;5045249;28;20239;-70
2023/05/08 04:41:47;;;;;;;31.83;23.17;;;;;;;;;;5046026;28;20181;-70
2023/05/08 04:44:13;;;;;;;31.73;23.98;;;;;;;;;;5044788;28;20193;-70
2023/05/08 04:46:38;;;;;;;30.77;23.92;;;;;;;;;;4995781;28;1051528;-69
2023/05/08 04:49:04;;;;;;;27.20;22.50;;;;;;;;;;5044209;28;20177;-70
2023/05/08 04:51:30;;;;;;;28.40;21.77;;;;;;;;;;5044450;28;20190;-69
2023/05/08 04:53:56;;;;;;;29.42;22.23;;;;;;;;;;5041240;28;20642;-70
2023/05/08 04:56:21;;;;;;;28.83;23.35;;;;;;;;;;5027729;28;20222;-70
2023/05/08 04:58:47;;;;;;;29.02;21.15;;;;;;;;;;5037598;28;20289;-70
2023/05/08 05:01:12;;;;;;;29.30;23.40;;;;;;;;;;5042806;28;20280;-70
2023/05/08 05:03:38;;;;;;;30.88;23.00;;;;;;;;;;5044150;28;20265;-70
2023/05/08 05:06:03;;;;;;;28.42;23.25;;;;;;;;;;5044765;28;20193;-70
2023/05/08 05:08:28;;;;;;;31.58;22.90;;;;;;;;;;5044409;28;20630;-70
2023/05/08 05:10:54;;;;;;;28.67;21.98;;;;;;;;;;5039320;28;20693;-70
2023/05/08 05:13:19;;;;;;;30.10;22.95;;;;;;;;;;5046042;28;20208;-69
2023/05/08 05:15:44;;;;;;;30.10;23.65;;;;;;;;;;5032617;28;20261;-69
2023/05/08 05:18:10;;;;;;;28.50;22.02;;;;;;;;;;5039665;28;20206;-69
2023/05/08 05:20:36;;;;;;;29.55;23.25;;;;;;;;;;5032514;28;20731;-70
2023/05/08 05:23:02;;;;;;;28.45;22.15;;;;;;;;;;5035754;28;20194;-70
2023/05/08 05:25:27;;;;;;;29.30;22.35;;;;;;;;;;5043000;28;20230;-70
2023/05/08 05:27:52;;;;;;;28.75;23.02;;;;;;;;;;5036430;28;20196;-70
2023/05/08 05:30:18;;;;;;;28.42;22.17;;;;;;;;;;5036030;28;20281;-70
2023/05/08 05:32:43;;;;;;;27.70;22.30;;;;;;;;;;5033441;28;20535;-70
2023/05/08 05:35:09;;;;;;;29.25;22.77;;;;;;;;;;5036278;28;20768;-70
2023/05/08 05:37:35;;;;;;;27.52;22.35;;;;;;;;;;5041798;28;20211;-70
2023/05/08 05:40:01;;;;;;;30.05;22.50;;;;;;;;;;5045537;28;20193;-70
2023/05/08 05:42:26;;;;;;;29.92;23.10;;;;;;;;;;5043363;28;20872;-70
2023/05/08 05:44:52;;;;;;;27.85;21.67;;;;;;;;;;5044447;28;20198;-69
2023/05/08 05:47:17;;;;;;;28.38;21.52;;;;;;;;;;5033035;28;20258;-69
2023/05/08 05:49:45;;;;;;;27.50;22.55;;;;;;;;;;5042525;28;20638;-70
2023/05/08 05:52:11;;;;;;;26.25;21.52;;;;;;;;;;5045599;28;20224;-70
2023/05/08 05:54:37;;;;;;;29.40;21.42;;;;;;;;;;5041964;28;20483;-70
2023/05/08 05:57:03;;;;;;;26.05;20.83;;;;;;;;;;5038795;28;20266;-70
2023/05/08 05:59:29;;;;;;;24.65;19.98;;;;;;;;;;5042244;28;20194;-70
2023/05/08 06:01:54;;;;;;;22.65;18.80;;;;;;;;;;5041059;28;20214;-70
2023/05/08 06:04:19;;;;;;;22.33;18.92;;;;;;;;;;5052066;28;20194;-70
2023/05/08 06:06:45;;;;;;;23.20;19.02;;;;;;;;;;5035855;28;20210;-70
2023/05/08 06:09:10;;;;;;;21.05;18.75;;;;;;;;;;5038454;28;20335;-70
2023/05/08 06:11:35;;;;;;;21.17;17.58;;;;;;;;;;5041725;28;20193;-70
2023/05/08 06:14:01;;;;;;;21.27;17.90;;;;;;;;;;5040213;28;20598;-70
2023/05/08 06:16:26;;;;;;;18.08;16.17;;;;;;;;;;5036647;28;20298;-70
2023/05/08 06:18:51;;;;;;;22.02;18.50;;;;;;;;;;5039200;28;20206;-71
2023/05/08 06:21:17;;;;;;;20.38;17.38;;;;;;;;;;5042729;28;20543;-69
2023/05/08 06:23:42;;;;;;;18.83;15.35;;;;;;;;;;5031923;28;20196;-70
2023/05/08 06:26:08;;;;;;;18.80;14.35;;;;;;;;;;5044041;28;20208;-70
2023/05/08 06:28:33;;;;;;;14.98;13.23;;;;;;;;;;5043263;28;20183;-68
2023/05/08 06:30:59;;;;;;;20.08;14.10;;;;;;;;;;5042328;28;20194;-69
2023/05/08 06:33:24;;;;;;;16.92;13.88;;;;;;;;;;5035829;28;20200;-70
2023/05/08 06:35:49;;;;;;;15.95;13.82;;;;;;;;;;5037025;28;20394;-74
2023/05/08 06:38:15;;;;;;;16.75;14.00;;;;;;;;;;5032079;28;20710;-69
2023/05/08 06:40:42;;;;;;;17.38;14.27;;;;;;;;;;5051001;28;20268;-69
2023/05/08 06:43:08;;;;;;;16.95;13.52;;;;;;;;;;5039903;28;20258;-68
2023/05/08 06:45:33;;;;;;;15.10;13.18;;;;;;;;;;5045529;28;20287;-70
2023/05/08 06:48:01;;;;;;;15.00;13.32;;;;;;;;;;5051200;28;20204;-69
2023/05/08 06:50:26;;;;;;;15.02;12.85;;;;;;;;;;5033817;28;20186;-70
2023/05/08 06:52:51;;;;;;;14.15;11.95;;;;;;;;;;5045954;28;20200;-68
2023/05/08 06:55:17;;;;;;;15.27;12.55;;;;;;;;;;5037627;28;20618;-70
2023/05/08 06:57:42;;;;;;;12.23;10.93;;;;;;;;;;5041579;28;20214;-69
2023/05/08 07:00:10;;;;;;;12.43;10.85;;;;;;;;;;5046495;28;20293;-69
2023/05/08 07:02:35;;;;;;;15.32;11.85;;;;;;;;;;5043778;28;20292;-70
2023/05/08 07:05:01;;;;;;;16.15;11.57;;;;;;;;;;5046557;28;20189;-70
2023/05/08 07:07:27;;;;;;;16.05;11.90;;;;;;;;;;5044021;28;20665;-70
2023/05/08 07:09:52;;;;;;;12.40;11.10;;;;;;;;;;5052987;28;20188;-70
2023/05/08 07:12:17;;;;;;;13.65;12.10;;;;;;;;;;5049753;28;20197;-70
2023/05/08 07:14:43;;;;;;;12.25;11.05;;;;;;;;;;5041659;28;20209;-70
2023/05/08 07:17:08;;;;;;;13.70;11.57;;;;;;;;;;5034538;28;20270;-70
2023/05/08 07:19:37;;;;;;;12.15;10.88;;;;;;;;;;5043282;28;20193;-70
2023/05/08 07:22:03;;;;;;;13.32;11.35;;;;;;;;;;5039999;28;20228;-69
2023/05/08 07:24:29;;;;;;;12.65;11.23;;;;;;;;;;5038144;28;20186;-69
2023/05/08 07:26:54;;;;;;;13.07;11.50;;;;;;;;;;5044357;28;20555;-69
2023/05/08 07:29:20;;;;;;;14.40;11.88;;;;;;;;;;5037791;28;20178;-70
2023/05/08 07:31:47;;;;;;;12.13;10.85;;;;;;;;;;5039424;28;20190;-70
2023/05/08 07:34:13;;;;;;;14.18;10.98;;;;;;;;;;5034248;28;20204;-70
2023/05/08 07:36:39;;;;;;;12.05;10.82;;;;;;;;;;5043713;28;20198;-70
2023/05/08 07:39:04;;;;;;;13.60;10.40;;;;;;;;;;5030931;28;20594;-70
2023/05/08 07:41:30;;;;;;;12.20;11.00;;;;;;;;;;5030678;28;20517;-70
2023/05/08 07:43:55;;;;;;;13.05;11.20;;;;;;;;;;5043640;28;20186;-70
2023/05/08 07:46:21;;;;;;;15.45;12.00;;;;;;;;;;5031032;28;20244;-70
2023/05/08 07:48:46;;;;;;;14.80;12.43;;;;;;;;;;5039278;28;20236;-70
2023/05/08 07:51:13;;;;;;;13.43;10.90;;;;;;;;;;5043919;28;20225;-70
2023/05/08 07:53:38;;;;;;;13.23;11.25;;;;;;;;;;5027401;28;20599;-70
2023/05/08 07:56:04;;;;;;;14.27;12.25;;;;;;;;;;5043888;28;20304;-70
2023/05/08 07:58:30;;;;;;;12.48;11.20;;;;;;;;;;5041764;28;20324;-70
2023/05/08 08:00:55;;;;;;;14.30;11.38;;;;;;;;;;5039888;28;20258;-70
2023/05/08 08:03:20;;;;;;;13.88;11.82;;;;;;;;;;5034060;28;20293;-70
2023/05/08 08:05:46;;;;;;;13.30;11.90;;;;;;;;;;5038612;28;20222;-70
2023/05/08 08:08:11;;;;;;;15.70;12.20;;;;;;;;;;5035947;28;20715;-71
2023/05/08 08:10:36;;;;;;;13.88;12.48;;;;;;;;;;5038747;28;20198;-70
2023/05/08 08:13:02;;;;;;;13.65;12.02;;;;;;;;;;5031239;28;20251;-70
2023/05/08 08:15:27;;;;;;;14.02;12.32;;;;;;;;;;5035251;28;20247;-70
2023/05/08 08:17:53;;;;;;;16.05;12.30;;;;;;;;;;5044441;28;20687;-70
2023/05/08 08:20:19;;;;;;;15.18;12.65;;;;;;;;;;5030545;28;20661;-71
2023/05/08 08:22:44;;;;;;;14.02;12.13;;;;;;;;;;5033746;28;20279;-70
2023/05/08 08:25:10;;;;;;;15.82;12.95;;;;;;;;;;5027362;28;20221;-70
2023/05/08 08:27:35;;;;;;;14.68;12.82;;;;;;;;;;5031951;28;20422;-70
2023/05/08 08:30:00;;;;;;;14.50;12.48;;;;;;;;;;5034418;28;20208;-70
2023/05/08 08:32:26;;;;;;;13.85;12.35;;;;;;;;;;5031393;28;20209;-71
2023/05/08 08:34:51;;;;;;;15.05;13.55;;;;;;;;;;5043151;28;20275;-70
2023/05/08 08:37:16;;;;;;;14.07;12.57;;;;;;;;;;5037016;28;20209;-70
2023/05/08 08:39:42;;;;;;;13.50;12.10;;;;;;;;;;5028223;28;20222;-70
2023/05/08 08:42:07;;;;;;;18.30;12.65;;;;;;;;;;5035391;28;20858;-70
2023/05/08 08:44:33;;;;;;;18.05;13.88;;;;;;;;;;5031180;28;20193;-70
2023/05/08 08:47:00;;;;;;;14.80;12.88;;;;;;;;;;5033907;28;20229;-70
2023/05/08 08:49:31;;;;;;;15.25;13.65;;;;;;;;;;5033247;28;20556;-71
2023/05/08 08:51:59;;;;;;;17.05;14.27;;;;;;;;;;5033283;28;20276;-69
2023/05/08 08:54:28;;;;;;;17.52;13.70;;;;;;;;;;5037118;28;20201;-70
2023/05/08 08:56:55;;;;;;;17.25;13.65;;;;;;;;;;5029584;28;20194;-70
2023/05/08 08:59:22;;;;;;;21.50;15.65;;;;;;;;;;5034833;28;20191;-69
2023/05/08 09:01:59;;;;;;;16.73;13.88;;;;;;;;;;5042063;28;20552;-69
2023/05/08 09:04:26;;;;;;;18.10;13.80;;;;;;;;;;5029937;28;20190;-70
2023/05/08 09:06:52;;;;;;;15.88;14.23;;;;;;;;;;5030487;28;20189;-69
2023/05/08 09:09:17;;;;;;;15.10;13.52;;;;;;;;;;5037538;28;20205;-70
2023/05/08 09:11:45;;;;;;;16.13;14.30;;;;;;;;;;5046142;28;20699;-72
2023/05/08 09:14:10;;;;;;;16.45;13.85;;;;;;;;;;5044567;28;20282;-70
2023/05/08 09:16:36;;;;;;;18.63;14.45;;;;;;;;;;5034754;28;20277;-70
2023/05/08 09:19:02;;;;;;;16.25;14.27;;;;;;;;;;5043530;28;20224;-71
2023/05/08 09:21:28;;;;;;;17.75;14.93;;;;;;;;;;5047141;28;20189;-70
2023/05/08 09:23:54;;;;;;;15.93;13.90;;;;;;;;;;5038607;28;20200;-70
2023/05/08 09:26:46;;;;;;;17.00;15.20;;;;;;;;;;5046947;28;20732;-70
2023/05/08 09:29:18;;;;;;;17.00;15.23;;;;;;;;;;5041322;28;20201;-70
2023/05/08 09:31:46;;;;;;;20.25;16.80;;;;;;;;;;5038567;28;20607;-70
2023/05/08 09:34:23;;;;;;;28.80;17.25;;;;;;;;;;5030079;28;20527;-70
2023/05/08 09:36:49;;;;;;;19.92;16.33;;;;;;;;;;5049716;28;20185;-70
2023/05/08 09:39:21;;;;;;;23.80;16.98;;;;;;;;;;5035853;28;20634;-70
2023/05/08 09:42:00;;;;;;;21.77;16.33;;;;;;;;;;5048662;28;20570;-70
2023/05/08 09:44:26;;;;;;;17.45;15.18;;;;;;;;;;5045759;28;20254;-70
2023/05/08 09:47:08;;;;;;;20.92;16.95;;;;;;;;;;5049402;28;20324;-70
2023/05/08 09:49:34;;;;;;;19.85;15.57;;;;;;;;;;5049241;28;20188;-70
2023/05/08 09:51:59;;;;;;;16.65;14.85;;;;;;;;;;5050931;28;20173;-68
2023/05/08 09:54:25;;;;;;;20.17;15.90;;;;;;;;;;5050560;28;20219;-68
2023/05/08 09:56:50;;;;;;;19.23;15.48;;;;;;;;;;5033597;28;20198;-69
2023/05/08 09:59:27;;;;;;;16.95;14.88;;;;;;;;;;5037879;28;20704;-70
2023/05/08 10:01:54;;;;;;;17.88;14.88;;;;;;;;;;5049968;28;20264;-70
2023/05/08 10:04:32;;;;;;;18.60;15.63;;;;;;;;;;5031755;28;20752;-69
2023/05/08 10:06:58;;;;;;;20.65;16.35;;;;;;;;;;5033845;28;20204;-69
2023/05/08 10:09:23;;;;;;;18.63;16.27;;;;;;;;;;5049503;28;20226;-68
2023/05/08 10:11:54;;;;;;;19.13;16.15;;;;;;;;;;5035381;28;20605;-70
2023/05/08 10:14:20;;;;;;;21.75;16.60;;;;;;;;;;5041896;28;20658;-69
2023/05/08 10:16:48;;;;;;;21.52;16.70;;;;;;;;;;5033175;28;20186;-70
2023/05/08 10:19:18;;;;;;;20.42;17.00;;;;;;;;;;5035459;28;20220;-69
2023/05/08 10:21:48;;;;;;;23.83;16.77;;;;;;;;;;5034169;28;20193;-70
2023/05/08 10:24:31;;;;;;;19.85;17.70;;;;;;;;;;5033685;28;20221;-69
2023/05/08 10:26:56;;;;;;;20.42;17.23;;;;;;;;;;5030579;28;20209;-69
2023/05/08 10:30:07;;;;;;;26.20;20.15;;;;;;;;;;5039575;28;20198;-70
2023/05/08 10:32:39;;;;;;;21.95;19.50;;;;;;;;;;5025771;28;20685;-68
2023/05/08 10:35:08;;;;;;;21.20;18.90;;;;;;;;;;5026500;28;20252;-67
2023/05/08 10:37:35;;;;;;;22.35;19.27;;;;;;;;;;5030480;28;20226;-67
2023/05/08 10:40:02;;;;;;;21.48;19.27;;;;;;;;;;5032573;28;20730;-67
2023/05/08 10:42:28;;;;;;;21.25;18.67;;;;;;;;;;5034076;28;20264;-69
2023/05/08 10:44:54;;;;;;;20.20;17.27;;;;;;;;;;5032937;28;20182;-67
2023/05/08 10:47:44;;;;;;;20.50;17.08;;;;;;;;;;5048753;28;20236;-68
2023/05/08 10:50:55;;;;;;;19.88;17.80;;;;;;;;;;5035871;28;20205;-68
2023/05/08 10:53:38;;;;;;;20.63;18.35;;;;;;;;;;5033863;28;20213;-68
2023/05/08 10:56:04;;;;;;;21.27;19.05;;;;;;;;;;5037294;28;20334;-68
2023/05/08 10:58:39;;;;;;;21.77;19.45;;;;;;;;;;5030018;28;20732;-68
2023/05/08 11:01:08;;;;;;;20.83;18.63;;;;;;;;;;5033572;28;20254;-69
2023/05/08 11:03:45;;;;;;;21.50;19.30;;;;;;;;;;5040260;28;20190;-68
2023/05/08 11:06:11;;;;;;;22.73;20.23;;;;;;;;;;5041535;28;20188;-68
2023/05/08 11:08:48;;;;;;;20.48;18.40;;;;;;;;;;5032064;28;20196;-67
2023/05/08 11:11:24;;;;;;;23.23;20.83;;;;;;;;;;5034627;28;20641;-67
2023/05/08 11:13:54;;;;;;;20.92;18.60;;;;;;;;;;5028290;28;20547;-67
2023/05/08 11:16:58;;;;;;;24.95;22.45;;;;;;;;;;5038049;28;20196;-68
2023/05/08 11:19:25;;;;;;;23.95;21.50;;;;;;;;;;5032713;28;20214;-68
2023/05/08 11:22:23;;;;;;;22.77;20.48;;;;;;;;;;5043481;28;20190;-68
2023/05/08 11:24:53;;;;;;;24.23;21.77;;;;;;;;;;5037452;28;20236;-68
2023/05/08 11:27:31;;;;;;;24.38;21.88;;;;;;;;;;5039652;28;20193;-68
2023/05/08 11:30:23;;;;;;;26.25;22.30;;;;;;;;;;5040085;28;20200;-69
2023/05/08 11:33:10;;;;;;;25.15;22.55;;;;;;;;;;5041124;28;20516;-69
2023/05/08 11:35:39;;;;;;;25.50;23.08;;;;;;;;;;5046629;28;20189;-69
2023/05/08 11:38:17;;;;;;;25.88;23.48;;;;;;;;;;5045183;28;20617;-68
2023/05/08 11:40:54;;;;;;;24.13;21.52;;;;;;;;;;5046901;28;20209;-69
2023/05/08 11:43:30;;;;;;;24.52;22.33;;;;;;;;;;5029858;28;20194;-69
2023/05/08 11:45:59;;;;;;;22.83;20.52;;;;;;;;;;5038200;28;20722;-68
2023/05/08 11:48:25;;;;;;;24.48;22.23;;;;;;;;;;5043513;28;20626;-68
2023/05/08 11:50:50;;;;;;;23.50;21.10;;;;;;;;;;5032999;28;20269;-69
2023/05/08 11:53:16;;;;;;;23.92;21.70;;;;;;;;;;5044135;28;20602;-68
2023/05/08 11:55:41;;;;;;;24.33;21.98;;;;;;;;;;5043548;28;20281;-69
2023/05/08 11:58:17;;;;;;;24.80;22.60;;;;;;;;;;5034749;28;20246;-69
2023/05/08 12:00:44;;;;;;;25.50;23.20;;;;;;;;;;5035971;28;20215;-69
2023/05/08 12:03:15;;;;;;;24.17;21.88;;;;;;;;;;5057939;28;20177;-68
2023/05/08 12:05:41;;;;;;;22.60;20.30;;;;;;;;;;5042567;28;20194;-67
2023/05/08 12:08:10;;;;;;;23.35;21.25;;;;;;;;;;5048611;28;20189;-68
2023/05/08 12:10:45;;;;;;;25.83;23.35;;;;;;;;;;5033591;28;20772;-69
2023/05/08 12:13:27;;;;;;;26.75;22.40;;;;;;;;;;5042030;28;20264;-69
2023/05/08 12:15:55;;;;;;;25.67;22.92;;;;;;;;;;5031568;28;20248;-68
2023/05/08 12:18:22;;;;;;;24.65;22.35;;;;;;;;;;5033743;28;20206;-69
2023/05/08 12:20:52;;;;;;;25.13;22.52;;;;;;;;;;5033611;28;20297;-68
2023/05/08 12:23:18;;;;;;;26.50;24.00;;;;;;;;;;5036174;28;20216;-68
2023/05/08 12:25:43;;;;;;;23.75;21.52;;;;;;;;;;5032320;28;20185;-67
2023/05/08 12:28:09;;;;;;;27.65;24.83;;;;;;;;;;5041537;28;20174;-67
2023/05/08 12:30:35;;;;;;;34.42;29.35;;;;;;;;;;5039774;28;20251;-71
2023/05/08 12:33:01;;;;;;;21.92;19.63;;;;;;;;;;5045662;28;20243;-74
2023/05/08 12:35:27;;;;;;;32.97;29.63;;;;;;;;;;5038455;28;20197;-76
2023/05/08 12:37:52;;;;;;;43.80;37.17;;;;;;;;;;5044114;28;20202;-79
2023/05/08 12:40:34;;;;;;;44.22;39.58;;;;;;;;;;5035595;28;20254;-74
2023/05/08 12:43:01;;;;;;;46.63;39.88;;;;;;;;;;5023655;28;20720;-73
2023/05/08 12:45:29;;;;;;;52.22;43.83;;;;;;;;;;5030514;28;20265;-73
2023/05/08 12:48:02;;;;;;;55.15;47.28;;;;;;;;;;5035097;28;20709;-76
2023/05/08 12:50:32;;;;;;;59.30;48.10;;;;;;;;;;5045298;28;20395;-72
2023/05/08 12:53:06;;;;;;;57.83;49.33;;;;;;;;;;5037585;28;20248;-74
2023/05/08 12:55:33;;;;;;;67.43;57.88;;;;;;;;;;5032099;28;20204;-73
2023/05/08 12:58:05;;;;;;;66.50;57.28;;;;;;;;;;5046291;28;20669;-72
2023/05/08 13:00:39;;;;;;;62.78;54.72;;;;;;;;;;5046224;28;20256;-72
2023/05/08 13:03:06;;;;;;;59.22;49.50;;;;;;;;;;5045395;28;20191;-71
2023/05/08 13:05:36;;;;;;;55.15;49.08;;;;;;;;;;5033729;28;20190;-72
2023/05/08 13:08:09;;;;;;;53.47;47.53;;;;;;;;;;5040424;28;20190;-71
2023/05/08 13:10:55;;;;;;;50.63;45.33;;;;;;;;;;5042953;28;20828;-71
2023/05/08 13:13:26;;;;;;;52.17;45.90;;;;;;;;;;5038571;28;20228;-71
2023/05/08 13:15:54;;;;;;;50.78;45.35;;;;;;;;;;5043190;28;20239;-71
2023/05/08 13:18:21;;;;;;;52.00;46.22;;;;;;;;;;5040862;28;20229;-71
2023/05/08 13:20:46;;;;;;;53.42;46.35;;;;;;;;;;5032438;28;20190;-71
2023/05/08 13:23:12;;;;;;;49.13;43.85;;;;;;;;;;5038486;28;20752;-70
2023/05/08 13:25:38;;;;;;;51.47;45.45;;;;;;;;;;5029870;28;20182;-70
2023/05/08 13:28:06;;;;;;;49.03;43.92;;;;;;;;;;5044054;28;20236;-70
2023/05/08 13:30:31;;;;;;;54.38;47.22;;;;;;;;;;5049434;28;20614;-71
2023/05/08 13:32:57;;;;;;;51.58;45.70;;;;;;;;;;5045201;28;20209;-71
2023/05/08 13:35:23;;;;;;;52.08;46.72;;;;;;;;;;5040339;28;20193;-72
2023/05/08 13:37:49;;;;;;;51.33;45.88;;;;;;;;;;5041882;28;20558;-74
2023/05/08 13:40:16;;;;;;;53.83;47.92;;;;;;;;;;5040939;28;20190;-74
2023/05/08 13:42:41;;;;;;;56.08;49.95;;;;;;;;;;5035963;28;20252;-75
2023/05/08 13:45:09;;;;;;;49.33;44.15;;;;;;;;;;5034338;28;20202;-73
2023/05/08 13:47:35;;;;;;;48.08;43.05;;;;;;;;;;5035487;28;20658;-73
2023/05/08 13:50:01;;;;;;;46.65;41.80;;;;;;;;;;5044705;28;20186;-72
2023/05/08 13:52:29;;;;;;;43.67;39.17;;;;;;;;;;5034795;28;20499;-72
2023/05/08 13:54:55;;;;;;;45.25;40.55;;;;;;;;;;5048464;28;20192;-71
2023/05/08 13:57:20;;;;;;;47.67;42.75;;;;;;;;;;5033256;28;20190;-71
2023/05/08 13:59:46;;;;;;;28.77;26.02;;;;;;;;;;5032579;28;20296;-71
2023/05/08 14:02:12;;;;;;;25.60;22.98;;;;;;;;;;5036891;28;20259;-70
2023/05/08 14:04:38;;;;;;;24.13;21.83;;;;;;;;;;5045547;28;20319;-71
2023/05/08 14:07:03;;;;;;;26.40;24.00;;;;;;;;;;5041016;28;20273;-70
2023/05/08 14:09:29;;;;;;;27.63;24.92;;;;;;;;;;5042513;28;20672;-71
2023/05/08 14:11:54;;;;;;;25.05;22.52;;;;;;;;;;5044535;28;20275;-72
2023/05/08 14:14:19;;;;;;;30.42;27.52;;;;;;;;;;5036042;28;20195;-72
2023/05/08 14:16:45;;;;;;;35.03;31.30;;;;;;;;;;5033477;28;20201;-72
2023/05/08 14:19:10;;;;;;;33.00;29.70;;;;;;;;;;5043509;28;20653;-72
2023/05/08 14:21:36;;;;;;;34.40;31.00;;;;;;;;;;5038545;28;20386;-71
2023/05/08 14:24:01;;;;;;;28.77;26.15;;;;;;;;;;5047474;28;20238;-69
2023/05/08 14:26:27;;;;;;;30.67;27.70;;;;;;;;;;5048043;28;20197;-70